createdAt,value
2019-02-07T00:00:32.788Z,97.50
2019-02-07T00:03:01.658Z,97.30
2019-02-07T00:05:30.230Z,97.30
2019-02-07T00:07:58.736Z,97.10
2019-02-07T00:10:27.326Z,97.30
2019-02-07T00:12:56.502Z,97.30
2019-02-07T00:15:24.949Z,97.50
2019-02-07T00:17:53.388Z,97.50
2019-02-07T00:20:22.070Z,97.40
2019-02-07T00:22:50.582Z,97.30
2019-02-07T00:25:19.166Z,97.40
2019-02-07T00:27:47.873Z,97.20
2019-02-07T00:30:18.917Z,97.20
2019-02-07T00:32:47.594Z,97.50
2019-02-07T00:35:16.429Z,97.40
2019-02-07T00:37:45.233Z,97.60
2019-02-07T00:40:18.134Z,97.40
2019-02-07T00:42:47.089Z,97.60
2019-02-07T00:45:17.550Z,97.40
2019-02-07T00:47:46.369Z,97.50
2019-02-07T00:50:16.307Z,97.40
2019-02-07T00:52:44.990Z,97.20
2019-02-07T00:55:18.209Z,97.30
2019-02-07T00:57:46.824Z,97.20
2019-02-07T01:00:23.923Z,97.20
2019-02-07T01:02:52.797Z,97.10
2019-02-07T01:05:22.892Z,96.90
2019-02-07T01:07:52.070Z,96.90
2019-02-07T01:10:26.805Z,96.40
2019-02-07T01:12:55.595Z,96.40
2019-02-07T01:15:25.259Z,96.10
2019-02-07T01:17:54.109Z,96.30
2019-02-07T01:20:22.606Z,96.70
2019-02-07T01:22:51.049Z,96.80
2019-02-07T01:25:24.273Z,96.80
2019-02-07T01:27:53.669Z,96.70
2019-02-07T01:30:26.294Z,96.60
2019-02-07T01:32:55.191Z,96.60
2019-02-07T01:35:23.904Z,96.60
2019-02-07T01:37:53.658Z,96.50
2019-02-07T01:40:23.018Z,96.40
2019-02-07T01:42:51.698Z,96.40
2019-02-07T01:45:24.284Z,96.40
2019-02-07T01:47:52.721Z,96.30
2019-02-07T01:50:26.161Z,96.30
2019-02-07T01:52:54.949Z,96.40
2019-02-07T01:55:23.812Z,96.10
2019-02-07T01:57:52.333Z,95.90
2019-02-07T02:00:21.650Z,96.10
2019-02-07T02:02:50.431Z,95.90
2019-02-07T02:05:20.121Z,96.40
2019-02-07T02:07:50.309Z,96.40
2019-02-07T02:10:24.493Z,96.50
2019-02-07T02:12:53.065Z,96.60
2019-02-07T02:15:24.898Z,96.60
2019-02-07T02:17:54.000Z,96.70
2019-02-07T02:20:24.633Z,96.80
2019-02-07T02:22:54.612Z,97.00
2019-02-07T02:25:23.595Z,97.10
2019-02-07T02:27:52.571Z,97.10
2019-02-07T02:30:35.600Z,97.20
2019-02-07T02:33:05.209Z,97.40
2019-02-07T02:35:33.833Z,97.30
2019-02-07T02:38:02.289Z,97.30
2019-02-07T02:40:31.125Z,97.40
2019-02-07T02:42:59.562Z,97.40
2019-02-07T02:45:37.210Z,97.40
2019-02-07T02:47:58.453Z,97.60
2019-02-07T02:50:28.243Z,97.30
2019-02-07T02:52:56.811Z,97.40
2019-02-07T02:55:32.424Z,97.70
2019-02-07T02:58:01.088Z,97.60
2019-02-07T03:00:49.493Z,97.50
2019-02-07T03:03:19.918Z,97.70
2019-02-07T03:06:06.551Z,97.70
2019-02-07T03:08:36.609Z,97.90
2019-02-07T03:11:15.561Z,97.80
2019-02-07T03:14:03.611Z,97.60
2019-02-07T03:16:34.041Z,97.60
2019-02-07T03:19:04.466Z,97.60
2019-02-07T03:21:37.557Z,97.60
2019-02-07T03:24:14.017Z,97.60
2019-02-07T03:26:44.165Z,97.60
2019-02-07T03:29:31.085Z,97.70
2019-02-07T03:32:03.947Z,97.60
2019-02-07T03:34:34.386Z,97.70
2019-02-07T03:37:21.380Z,97.70
2019-02-07T03:39:51.466Z,97.70
2019-02-07T03:42:37.984Z,98.10
2019-02-07T03:45:26.205Z,98.40
2019-02-07T03:48:08.677Z,98.30
2019-02-07T03:50:39.105Z,98.50
2019-02-07T03:53:21.461Z,98.60
2019-02-07T03:55:51.821Z,98.70
2019-02-07T03:58:38.057Z,98.40
2019-02-07T04:01:14.689Z,98.50
2019-02-07T04:03:45.261Z,98.70
2019-02-07T04:06:24.245Z,98.60
2019-02-07T04:09:10.856Z,98.60
2019-02-07T04:11:49.633Z,98.40
2019-02-07T04:14:36.164Z,98.30
2019-02-07T04:17:06.230Z,98.20
2019-02-07T04:19:36.848Z,97.90
2019-02-07T04:22:07.873Z,98.00
2019-02-07T04:24:38.306Z,97.90
2019-02-07T04:27:14.778Z,97.90
2019-02-07T04:29:50.973Z,97.90
2019-02-07T04:32:21.052Z,97.90
2019-02-07T04:35:03.431Z,97.90
2019-02-07T04:37:33.594Z,97.90
2019-02-07T04:40:12.089Z,97.60
2019-02-07T04:42:58.310Z,97.70
2019-02-07T04:45:28.376Z,97.90
2019-02-07T04:48:04.401Z,97.60
2019-02-07T04:50:34.537Z,97.50
2019-02-07T04:53:11.919Z,97.60
2019-02-07T04:55:45.154Z,97.70
2019-02-07T04:58:33.785Z,97.50
2019-02-07T05:01:09.850Z,97.90
2019-02-07T05:03:42.798Z,97.80
2019-02-07T05:06:31.191Z,97.40
2019-02-07T05:09:13.137Z,97.60
2019-02-07T05:11:49.287Z,97.60
2019-02-07T05:14:32.009Z,97.50
2019-02-07T05:17:05.197Z,97.60
2019-02-07T05:19:52.306Z,97.60
2019-02-07T05:22:31.437Z,97.60
2019-02-07T05:25:18.025Z,97.40
2019-02-07T05:27:53.778Z,97.50
2019-02-07T05:30:35.737Z,97.70
2019-02-07T05:33:09.210Z,97.50
2019-02-07T05:35:54.644Z,97.60
2019-02-07T05:38:27.299Z,97.40
2019-02-07T05:41:13.442Z,97.20
2019-02-07T05:43:43.886Z,97.60
2019-02-07T05:46:22.557Z,97.90
2019-02-07T05:48:52.921Z,97.40
2019-02-07T05:51:23.021Z,97.20
2019-02-07T05:54:07.885Z,97.30
2019-02-07T05:56:46.916Z,97.00
2019-02-07T05:59:33.652Z,97.10
2019-02-07T06:02:07.196Z,97.20
2019-02-07T06:04:40.166Z,97.30
2019-02-07T06:07:18.799Z,97.40
2019-02-07T06:10:05.167Z,97.30
2019-02-07T06:12:38.549Z,97.20
2019-02-07T06:15:22.189Z,97.30
2019-02-07T06:17:52.278Z,97.30
2019-02-07T06:20:22.340Z,97.40
2019-02-07T06:23:01.141Z,97.80
2019-02-07T06:25:48.286Z,97.80
2019-02-07T06:28:33.520Z,97.70
2019-02-07T06:31:03.597Z,97.80
2019-02-07T06:33:34.013Z,97.90
2019-02-07T06:36:12.777Z,97.70
2019-02-07T06:38:48.878Z,97.60
2019-02-07T06:41:18.945Z,98.10
2019-02-07T06:43:51.797Z,98.10
2019-02-07T06:46:38.752Z,98.10
2019-02-07T06:49:18.508Z,98.20
2019-02-07T06:51:48.654Z,98.30
2019-02-07T06:54:37.221Z,98.10
2019-02-07T06:57:25.929Z,97.80
2019-02-07T06:59:56.005Z,97.30
2019-02-07T07:02:26.073Z,96.80
2019-02-07T07:05:08.305Z,97.00
2019-02-07T07:07:38.729Z,96.50
2019-02-07T07:10:31.169Z,96.60
2019-02-07T07:13:10.613Z,96.50
2019-02-07T07:15:43.174Z,96.50
2019-02-07T07:18:29.712Z,96.50
2019-02-07T07:21:08.806Z,96.50
2019-02-07T07:23:55.432Z,96.50
2019-02-07T07:26:42.144Z,96.60
2019-02-07T07:29:21.428Z,96.60
2019-02-07T07:32:07.981Z,96.60
2019-02-07T07:34:44.347Z,96.40
2019-02-07T07:37:30.462Z,96.20
2019-02-07T07:40:00.602Z,96.10
2019-02-07T07:42:30.994Z,97.60
2019-02-07T07:45:17.385Z,96.30
2019-02-07T07:47:59.525Z,96.10
2019-02-07T07:50:38.572Z,96.00
2019-02-07T07:53:24.692Z,96.00
2019-02-07T07:56:07.125Z,96.30
2019-02-07T07:58:37.219Z,96.20
2019-02-07T08:01:23.697Z,95.90
2019-02-07T08:03:53.781Z,96.30
2019-02-07T08:06:26.865Z,95.30
2019-02-07T08:09:06.090Z,95.50
2019-02-07T08:11:48.702Z,95.30
2019-02-07T08:14:31.291Z,95.20
2019-02-07T08:17:04.407Z,95.10
2019-02-07T08:19:37.386Z,95.20
2019-02-07T08:22:19.654Z,94.90
2019-02-07T08:24:55.837Z,94.90
2019-02-07T08:27:25.970Z,94.90
2019-02-07T08:29:59.275Z,94.50
2019-02-07T08:32:29.701Z,94.00
2019-02-07T08:35:05.553Z,94.10
2019-02-07T08:37:38.597Z,95.00
2019-02-07T08:40:21.156Z,94.50
2019-02-07T08:43:06.638Z,95.00
2019-02-07T08:45:52.192Z,93.90
2019-02-07T08:48:22.955Z,93.50
2019-02-07T08:51:05.237Z,93.50
2019-02-07T08:53:50.113Z,93.40
2019-02-07T08:56:32.749Z,93.20
2019-02-07T08:59:02.905Z,93.20
2019-02-07T09:01:42.210Z,93.70
2019-02-07T09:04:15.031Z,93.20
2019-02-07T09:06:45.485Z,93.20
2019-02-07T09:09:25.105Z,92.90
2019-02-07T09:11:55.194Z,92.30
2019-02-07T09:14:28.253Z,92.80
2019-02-07T09:16:58.683Z,92.70
2019-02-07T09:19:46.032Z,92.60
2019-02-07T09:22:34.277Z,92.10
2019-02-07T09:25:21.140Z,91.60
2019-02-07T09:28:07.877Z,91.50
2019-02-07T09:30:43.806Z,91.50
2019-02-07T09:33:20.038Z,91.10
2019-02-07T09:36:04.464Z,91.20
2019-02-07T09:38:25.245Z,91.50
2019-02-07T09:40:55.698Z,91.80
2019-02-07T09:43:26.160Z,91.40
2019-02-07T09:46:02.066Z,91.60
2019-02-07T09:48:35.057Z,91.30
2019-02-07T09:51:21.397Z,90.40
2019-02-07T09:53:51.769Z,89.70
2019-02-07T09:56:34.385Z,88.60
2019-02-07T09:59:20.814Z,88.00
2019-02-07T10:02:00.529Z,87.40
2019-02-07T10:04:30.966Z,87.30
2019-02-07T10:07:17.390Z,86.50
2019-02-07T10:10:04.002Z,86.10
2019-02-07T10:12:34.395Z,85.10
2019-02-07T10:15:07.262Z,85.70
2019-02-07T10:17:37.470Z,85.80
2019-02-07T10:20:19.293Z,83.90
2019-02-07T10:22:58.429Z,84.00
2019-02-07T10:25:28.513Z,81.50
2019-02-07T10:28:04.606Z,82.40
2019-02-07T10:30:34.861Z,83.50
2019-02-07T10:33:08.054Z,83.60
2019-02-07T10:35:56.459Z,84.30
2019-02-07T10:38:44.787Z,81.70
2019-02-07T10:44:03.154Z,83.70
2019-02-07T10:46:33.794Z,80.40
2019-02-07T10:49:09.864Z,80.30
2019-02-07T10:51:43.181Z,80.10
2019-02-07T10:54:17.284Z,78.60
2019-02-07T10:57:04.201Z,78.40
2019-02-07T10:59:43.653Z,76.20
2019-02-07T11:02:23.482Z,77.50
2019-02-07T11:05:06.298Z,76.90
2019-02-07T11:07:48.724Z,75.80
2019-02-07T11:10:22.117Z,76.10
2019-02-07T11:13:07.285Z,76.30
2019-02-07T11:15:37.349Z,76.30
2019-02-07T11:18:07.925Z,76.70
2019-02-07T11:20:56.541Z,73.80
2019-02-07T11:23:43.510Z,75.10
2019-02-07T11:26:22.654Z,73.90
2019-02-07T11:29:09.333Z,73.90
2019-02-07T11:31:42.545Z,74.00
2019-02-07T11:34:24.745Z,72.90
2019-02-07T11:36:55.157Z,73.00
2019-02-07T11:39:41.866Z,75.80
2019-02-07T11:42:18.458Z,73.90
2019-02-07T11:44:51.907Z,73.80
2019-02-07T11:47:22.569Z,76.70
2019-02-07T11:49:56.194Z,77.60
2019-02-07T11:52:32.946Z,80.30
2019-02-07T11:55:08.721Z,82.70
2019-02-07T11:57:38.973Z,83.60
2019-02-07T12:00:26.978Z,85.70
2019-02-07T12:02:59.596Z,87.00
2019-02-07T12:05:48.314Z,87.50
2019-02-07T12:08:27.150Z,89.80
2019-02-07T12:10:59.968Z,91.10
2019-02-07T12:13:30.028Z,91.20
2019-02-07T12:16:15.301Z,91.90
2019-02-07T12:19:00.436Z,91.90
2019-02-07T12:21:42.058Z,92.40
2019-02-07T12:24:30.103Z,93.10
2019-02-07T12:27:00.530Z,93.20
2019-02-07T12:29:33.725Z,93.80
2019-02-07T12:32:04.082Z,93.40
2019-02-07T12:34:50.428Z,94.40
2019-02-07T12:37:26.449Z,94.30
2019-02-07T12:39:56.532Z,94.30
2019-02-07T12:42:43.156Z,94.70
2019-02-07T12:45:29.597Z,95.00
2019-02-07T12:48:04.086Z,94.80
2019-02-07T12:50:46.563Z,95.30
2019-02-07T12:53:19.654Z,95.40
2019-02-07T12:55:52.385Z,95.00
2019-02-07T12:58:24.429Z,94.60
2019-02-07T13:00:57.294Z,95.00
2019-02-07T13:03:39.897Z,95.20
2019-02-07T13:06:19.438Z,95.60
2019-02-07T13:08:52.633Z,95.50
2019-02-07T13:11:29.236Z,94.90
2019-02-07T13:14:08.537Z,95.40
2019-02-07T13:16:41.837Z,95.80
2019-02-07T13:19:12.243Z,95.90
2019-02-07T13:21:42.928Z,95.90
2019-02-07T13:24:25.176Z,96.20
2019-02-07T13:27:04.409Z,96.30
2019-02-07T13:29:34.861Z,96.40
2019-02-07T13:32:12.744Z,96.50
2019-02-07T13:34:48.845Z,96.70
2019-02-07T13:37:19.245Z,97.30
2019-02-07T13:39:49.669Z,97.50
2019-02-07T13:42:36.604Z,98.20
2019-02-07T13:45:13.883Z,98.20
2019-02-07T13:47:46.898Z,98.50
2019-02-07T13:50:20.570Z,98.30
2019-02-07T13:52:59.818Z,98.90
2019-02-07T13:55:38.725Z,99.00
2019-02-07T13:58:17.981Z,98.90
2019-02-07T14:00:48.314Z,99.10
2019-02-07T14:03:27.726Z,99.50
2019-02-07T14:06:03.813Z,99.30
2019-02-07T14:08:43.227Z,99.50
2019-02-07T14:11:28.903Z,99.50
2019-02-07T14:14:01.730Z,99.60
2019-02-07T14:16:31.819Z,99.90
2019-02-07T14:19:05.117Z,99.90
2019-02-07T14:21:44.741Z,99.90
2019-02-07T14:24:24.118Z,99.90
2019-02-07T14:27:00.320Z,99.90
2019-02-07T14:29:30.670Z,99.90
2019-02-07T14:32:00.741Z,99.90
2019-02-07T14:34:36.953Z,99.90
2019-02-07T14:37:31.953Z,99.90
2019-02-07T14:40:27.228Z,99.90
2019-02-07T14:43:09.674Z,99.90
2019-02-07T14:45:42.644Z,99.90
2019-02-07T14:48:12.705Z,99.90
2019-02-07T14:50:41.569Z,99.90
2019-02-07T14:53:09.993Z,99.90
2019-02-07T14:55:38.680Z,99.90
2019-02-07T14:58:07.179Z,99.90
2019-02-07T15:00:36.108Z,99.90
2019-02-07T15:03:04.675Z,99.90
2019-02-07T15:05:33.114Z,99.90
2019-02-07T15:08:02.270Z,99.90
2019-02-07T15:10:30.709Z,99.90
2019-02-07T15:13:01.174Z,99.90
2019-02-07T15:15:29.658Z,99.90
2019-02-07T15:17:58.650Z,99.90
2019-02-07T15:20:27.098Z,99.90
2019-02-07T15:22:55.896Z,99.90
2019-02-07T15:25:24.406Z,99.90
2019-02-07T15:27:53.089Z,99.90
2019-02-07T15:30:22.290Z,99.90
2019-02-07T15:32:50.713Z,99.90
2019-02-07T15:35:32.393Z,99.90
2019-02-07T15:38:00.813Z,99.90
2019-02-07T15:40:29.498Z,99.90
2019-02-07T15:42:58.826Z,99.90
2019-02-07T15:45:27.603Z,99.90
2019-02-07T15:47:58.849Z,99.90
2019-02-07T15:50:37.586Z,99.90
2019-02-07T15:53:00.246Z,99.90
2019-02-07T15:55:28.669Z,99.90
2019-02-07T15:57:57.545Z,99.90
2019-02-07T16:00:38.192Z,99.90
2019-02-07T16:03:08.513Z,99.90
2019-02-07T16:05:37.281Z,99.90
2019-02-07T16:08:05.961Z,99.90
2019-02-07T16:10:34.453Z,99.90
2019-02-07T16:13:02.965Z,99.90
2019-02-07T16:15:31.718Z,99.90
2019-02-07T16:18:00.506Z,99.90
2019-02-07T16:20:29.546Z,99.90
2019-02-07T16:22:59.010Z,99.90
2019-02-07T16:25:27.849Z,99.90
2019-02-07T16:27:56.685Z,99.90
2019-02-07T16:30:25.240Z,99.90
2019-02-07T16:32:53.682Z,99.90
2019-02-07T16:35:22.581Z,99.90
2019-02-07T16:37:51.950Z,99.90
2019-02-07T16:40:22.269Z,99.90
2019-02-07T16:42:51.587Z,99.90
2019-02-07T16:45:26.833Z,99.90
2019-02-07T16:47:55.888Z,99.90
2019-02-07T16:50:27.223Z,99.90
2019-02-07T16:52:57.177Z,99.90
2019-02-07T16:55:26.046Z,99.90
2019-02-07T16:57:54.617Z,99.90
2019-02-07T17:00:31.712Z,99.90
2019-02-07T17:03:00.505Z,99.90
2019-02-07T17:05:28.992Z,99.90
2019-02-07T17:07:57.601Z,99.90
2019-02-07T17:10:31.777Z,99.90
2019-02-07T17:13:00.934Z,99.90
2019-02-07T17:15:29.732Z,99.90
2019-02-07T17:17:58.176Z,99.90
2019-02-07T17:20:31.455Z,99.90
2019-02-07T17:23:00.064Z,99.90
2019-02-07T17:25:30.922Z,99.90
2019-02-07T17:27:59.501Z,99.90
2019-02-07T17:30:28.563Z,99.90
2019-02-07T17:32:57.973Z,99.90
2019-02-07T17:35:26.576Z,99.90
2019-02-07T17:37:55.361Z,99.90
2019-02-07T17:40:26.273Z,99.90
2019-02-07T17:42:55.389Z,99.90
2019-02-07T17:45:26.613Z,99.90
2019-02-07T17:47:55.610Z,99.90
2019-02-07T17:50:35.775Z,99.90
2019-02-07T17:53:09.362Z,99.90
2019-02-07T17:55:37.801Z,99.90
2019-02-07T17:58:07.441Z,99.90
2019-02-07T18:00:43.137Z,99.90
2019-02-07T18:03:12.001Z,99.90
2019-02-07T18:05:40.513Z,99.90
2019-02-07T18:08:09.548Z,99.90
2019-02-07T18:10:38.121Z,99.90
2019-02-07T18:13:07.353Z,99.90
2019-02-07T18:15:36.149Z,99.90
2019-02-07T18:18:05.319Z,99.90
2019-02-07T18:20:33.829Z,99.90
2019-02-07T18:23:02.249Z,99.90
2019-02-07T18:25:31.019Z,99.90
2019-02-07T18:27:59.637Z,99.90
2019-02-07T18:30:28.585Z,99.90
2019-02-07T18:32:57.339Z,99.90
2019-02-07T18:35:26.145Z,99.90
2019-02-07T18:37:54.933Z,99.90
2019-02-07T18:40:28.537Z,99.90
2019-02-07T18:42:57.201Z,99.90
2019-02-07T18:45:25.710Z,99.90
2019-02-07T18:47:54.136Z,99.90
2019-02-07T18:50:25.879Z,99.90
2019-02-07T18:52:54.445Z,99.90
2019-02-07T18:55:23.244Z,99.90
2019-02-07T18:57:51.981Z,99.90
2019-02-07T19:00:30.333Z,99.90
2019-02-07T19:02:59.309Z,99.90
2019-02-07T19:05:28.301Z,99.90
2019-02-07T19:07:56.897Z,99.90
2019-02-07T19:10:27.523Z,99.90
2019-02-07T19:12:56.741Z,99.90
2019-02-07T19:15:37.486Z,99.90
2019-02-07T19:18:06.999Z,99.90
2019-02-07T19:20:35.430Z,99.90
2019-02-07T19:23:05.197Z,99.90
2019-02-07T19:25:33.638Z,99.90
2019-02-07T19:28:02.314Z,99.90
2019-02-07T19:30:32.794Z,99.90
2019-02-07T19:33:01.457Z,99.90
2019-02-07T19:35:30.158Z,99.90
2019-02-07T19:37:58.938Z,99.90
2019-02-07T19:40:27.357Z,99.90
2019-02-07T19:42:56.643Z,99.90
2019-02-07T19:45:26.312Z,99.90
2019-02-07T19:47:54.813Z,99.90
2019-02-07T19:50:29.076Z,99.90
2019-02-07T19:52:57.702Z,99.90
2019-02-07T19:55:28.901Z,99.90
2019-02-07T19:57:57.885Z,99.90
2019-02-07T20:00:28.747Z,99.90
2019-02-07T20:02:57.930Z,99.90
2019-02-07T20:05:26.691Z,99.90
2019-02-07T20:07:55.139Z,99.90
2019-02-07T20:10:29.585Z,99.90
2019-02-07T20:12:58.929Z,99.90
2019-02-07T20:15:29.598Z,99.90
2019-02-07T20:17:59.981Z,99.90
2019-02-07T20:20:28.482Z,99.90
2019-02-07T20:22:57.206Z,99.90
2019-02-07T20:25:25.966Z,99.90
2019-02-07T20:27:54.731Z,99.90
2019-02-07T20:30:32.313Z,99.90
2019-02-07T20:33:00.965Z,99.90
2019-02-07T20:35:29.770Z,99.90
2019-02-07T20:37:58.749Z,99.90
2019-02-07T20:40:29.075Z,99.90
2019-02-07T20:42:57.580Z,99.90
2019-02-07T20:45:26.471Z,99.90
2019-02-07T20:47:55.329Z,99.90
2019-02-07T20:50:26.131Z,99.90
2019-02-07T20:52:54.884Z,99.90
2019-02-07T20:55:24.461Z,99.90
2019-02-07T20:57:54.178Z,99.90
2019-02-07T21:00:25.954Z,99.90
2019-02-07T21:02:56.145Z,99.90
2019-02-07T21:05:25.842Z,99.90
2019-02-07T21:07:59.375Z,99.90
2019-02-07T21:10:52.554Z,99.90
2019-02-07T21:13:21.340Z,99.90
2019-02-07T21:15:50.105Z,99.90
2019-02-07T21:18:18.722Z,99.90
2019-02-07T21:20:47.481Z,99.90
2019-02-07T21:23:16.265Z,99.90
2019-02-07T21:25:47.429Z,99.90
2019-02-07T21:28:16.304Z,99.90
2019-02-07T21:30:44.805Z,99.90
2019-02-07T21:33:14.593Z,99.90
2019-02-07T21:35:43.021Z,99.90
2019-02-07T21:38:11.462Z,99.90
2019-02-07T21:40:39.961Z,99.90
2019-02-07T21:43:08.525Z,99.90
2019-02-07T21:45:36.964Z,99.90
2019-02-07T21:48:08.358Z,99.90
2019-02-07T21:50:36.967Z,99.90
2019-02-07T21:53:05.465Z,99.90
2019-02-07T21:55:37.834Z,99.90
2019-02-07T21:58:08.465Z,99.90
2019-02-07T22:00:39.797Z,99.90
2019-02-07T22:03:10.696Z,99.90
2019-02-07T22:05:42.466Z,99.90
2019-02-07T22:08:11.468Z,99.90
2019-02-07T22:10:40.026Z,99.90
2019-02-07T22:13:08.857Z,99.90
2019-02-07T22:15:37.945Z,99.90
2019-02-07T22:18:07.814Z,99.90
2019-02-07T22:20:38.354Z,99.90
2019-02-07T22:23:06.625Z,99.90
2019-02-07T22:25:35.301Z,99.90
2019-02-07T22:28:04.361Z,99.90
2019-02-07T22:30:35.239Z,99.90
2019-02-07T22:33:04.305Z,99.90
2019-02-07T22:35:33.090Z,99.90
2019-02-07T22:38:01.581Z,99.90
2019-02-07T22:40:30.431Z,99.90
2019-02-07T22:43:00.689Z,99.90
2019-02-07T22:45:29.646Z,99.90
2019-02-07T22:47:58.401Z,99.90
2019-02-07T22:50:29.248Z,99.90
2019-02-07T22:52:59.017Z,99.90
2019-02-07T22:55:27.979Z,99.90
2019-02-07T22:57:56.644Z,99.90
2019-02-07T23:00:36.606Z,99.90
2019-02-07T23:03:07.237Z,99.90
2019-02-07T23:05:35.681Z,99.90
2019-02-07T23:08:04.792Z,99.90
2019-02-07T23:10:33.301Z,99.90
2019-02-07T23:13:03.817Z,99.90
2019-02-07T23:15:32.613Z,99.90
2019-02-07T23:18:01.248Z,99.90
2019-02-07T23:20:29.694Z,99.90
2019-02-07T23:23:04.855Z,99.90
2019-02-07T23:25:29.022Z,99.90
2019-02-07T23:27:57.986Z,99.90
2019-02-07T23:30:26.499Z,99.90
2019-02-07T23:32:54.921Z,99.90
2019-02-07T23:35:23.361Z,99.90
2019-02-07T23:37:51.787Z,99.90
2019-02-07T23:40:23.056Z,99.90
2019-02-07T23:42:51.824Z,99.90
2019-02-07T23:45:21.800Z,99.90
2019-02-07T23:47:50.757Z,99.90
2019-02-07T23:50:20.085Z,99.90
2019-02-07T23:52:48.518Z,99.90
2019-02-07T23:55:17.750Z,99.90
2019-02-07T23:57:47.245Z,99.90
